Time;durP1;ratioP1;P1;durP2;ratioP2;P2;SDS_P1;SDS_P2;PMS_P1;PMS_P2;Temp;Humidity;BMP_temperature;BMP_pressure;BME280_temperature;BME280_humidity;BME280_pressure;Samples;Min_cycle;Max_cycle;Signal;HPM_P1;HPM_P2
2022/03/04 00:01:14;;;;;;;1.60;1.40;;;4.20;81.90;;;;;;5026877;28;20470;-74
2022/03/04 00:03:41;;;;;;;1.60;1.40;;;4.10;81.70;;;;;;5021546;28;20486;-77
2022/03/04 00:06:08;;;;;;;1.50;1.40;;;4.10;81.80;;;;;;5026198;28;20465;-73
2022/03/04 00:08:35;;;;;;;1.50;1.30;;;4.10;81.70;;;;;;5020836;28;20459;-71
2022/03/04 00:11:03;;;;;;;1.60;1.50;;;4.10;81.80;;;;;;5025130;28;20486;-74
2022/03/04 00:13:31;;;;;;;1.57;1.40;;;4.10;81.90;;;;;;5027921;28;20470;-73
2022/03/04 00:15:59;;;;;;;1.57;1.40;;;4.10;81.90;;;;;;5017413;28;20459;-74
2022/03/04 00:18:27;;;;;;;1.60;1.30;;;4.10;81.70;;;;;;5021312;28;20537;-75
2022/03/04 00:20:53;;;;;;;1.57;1.40;;;4.10;81.60;;;;;;5016095;28;20536;-75
2022/03/04 00:23:21;;;;;;;1.60;1.50;;;4.10;81.60;;;;;;5029003;28;20998;-72
2022/03/04 00:25:48;;;;;;;1.50;1.40;;;4.00;81.60;;;;;;5027966;28;20554;-72
2022/03/04 00:28:15;;;;;;;1.50;1.40;;;4.00;81.90;;;;;;5027433;28;20455;-74
2022/03/04 00:30:41;;;;;;;1.60;1.50;;;3.90;82.30;;;;;;5025940;28;20515;-72
2022/03/04 00:33:09;;;;;;;1.60;1.40;;;3.90;82.20;;;;;;5003050;28;20490;-73
2022/03/04 00:35:36;;;;;;;1.60;1.50;;;3.80;82.30;;;;;;5026603;28;20518;-73
2022/03/04 00:38:03;;;;;;;1.53;1.40;;;3.70;82.90;;;;;;5026359;28;20470;-73
2022/03/04 00:40:30;;;;;;;1.53;1.40;;;3.70;82.90;;;;;;5025666;28;20974;-73
2022/03/04 00:42:57;;;;;;;1.60;1.43;;;3.70;83.30;;;;;;5025727;28;20467;-73
2022/03/04 00:45:24;;;;;;;1.60;1.40;;;3.60;82.70;;;;;;5030130;28;20483;-73
2022/03/04 00:47:51;;;;;;;1.53;1.40;;;3.60;83.40;;;;;;5030107;28;20455;-73
2022/03/04 00:50:19;;;;;;;1.57;1.40;;;3.70;83.70;;;;;;5029958;28;20517;-73
2022/03/04 00:52:46;;;;;;;1.60;1.40;;;3.70;83.80;;;;;;5014598;28;20494;-73
2022/03/04 00:55:12;;;;;;;1.57;1.40;;;3.70;83.40;;;;;;5025192;28;20498;-74
2022/03/04 00:57:39;;;;;;;1.60;1.40;;;3.70;83.20;;;;;;5030485;28;20491;-75
2022/03/04 01:00:07;;;;;;;1.60;1.50;;;3.70;83.40;;;;;;5030726;28;20736;-73
2022/03/04 01:02:34;;;;;;;3.97;3.73;;;3.60;83.20;;;;;;5029438;28;20463;-72
2022/03/04 01:05:01;;;;;;;1.50;1.40;;;3.60;83.40;;;;;;5030173;28;20491;-74
2022/03/04 01:07:30;;;;;;;1.60;1.40;;;3.50;83.60;;;;;;5019780;28;20546;-75
2022/03/04 01:09:57;;;;;;;1.60;1.50;;;3.40;83.20;;;;;;5024944;28;20509;-73
2022/03/04 01:12:24;;;;;;;1.60;1.50;;;3.40;84.30;;;;;;5030369;28;20871;-72
2022/03/04 01:14:51;;;;;;;1.60;1.47;;;3.30;84.30;;;;;;5030792;28;20483;-73
2022/03/04 01:17:18;;;;;;;1.60;1.50;;;3.30;84.30;;;;;;5030852;28;20459;-73
2022/03/04 01:19:45;;;;;;;1.50;1.40;;;3.20;84.40;;;;;;5027541;28;20575;-74
2022/03/04 01:22:12;;;;;;;1.70;1.60;;;3.20;84.20;;;;;;5029779;28;20459;-74
2022/03/04 01:24:40;;;;;;;1.57;1.40;;;3.10;84.50;;;;;;5029888;28;20475;-76
2022/03/04 01:27:06;;;;;;;1.60;1.50;;;3.10;84.90;;;;;;5019900;28;20519;-75
2022/03/04 01:29:33;;;;;;;1.57;1.40;;;3.00;85.20;;;;;;5028039;28;20860;-76
2022/03/04 01:32:00;;;;;;;1.60;1.47;;;2.90;85.40;;;;;;5028356;28;20467;-72
2022/03/04 01:34:27;;;;;;;1.60;1.50;;;2.90;85.70;;;;;;5030023;28;20510;-72
2022/03/04 01:36:54;;;;;;;1.90;1.80;;;2.80;85.70;;;;;;5019275;28;20676;-73
2022/03/04 01:39:21;;;;;;;1.60;1.50;;;2.70;86.10;;;;;;5029230;28;20491;-74
2022/03/04 01:41:49;;;;;;;1.60;1.50;;;2.70;86.00;;;;;;5028887;28;20470;-75
2022/03/04 01:44:16;;;;;;;1.60;1.50;;;2.60;86.00;;;;;;5028939;28;20525;-75
2022/03/04 01:46:43;;;;;;;1.67;1.57;;;2.60;86.80;;;;;;5020180;28;20568;-73
2022/03/04 01:49:10;;;;;;;1.60;1.50;;;2.50;87.50;;;;;;5028110;28;20459;-76
2022/03/04 01:51:37;;;;;;;1.70;1.60;;;2.50;87.50;;;;;;5019547;28;20498;-74
2022/03/04 01:54:04;;;;;;;1.60;1.50;;;2.50;87.10;;;;;;5024096;28;21015;-74
2022/03/04 01:56:31;;;;;;;1.60;1.50;;;2.40;87.60;;;;;;5029839;28;20520;-72
2022/03/04 01:58:59;;;;;;;1.53;1.40;;;2.40;87.80;;;;;;5029183;28;20487;-74
2022/03/04 02:01:26;;;;;;;1.60;1.50;;;2.40;87.50;;;;;;5027798;28;20459;-74
2022/03/04 02:03:53;;;;;;;1.60;1.50;;;2.40;87.50;;;;;;5029289;28;20486;-72
2022/03/04 02:06:20;;;;;;;1.70;1.60;;;2.40;88.20;;;;;;5029514;28;21004;-73
2022/03/04 02:08:46;;;;;;;1.60;1.50;;;2.40;88.90;;;;;;5027979;28;20458;-75
2022/03/04 02:11:13;;;;;;;1.70;1.60;;;2.40;88.80;;;;;;5028200;28;20467;-74
2022/03/04 02:13:42;;;;;;;1.60;1.50;;;2.50;88.40;;;;;;5028375;28;20479;-73
2022/03/04 02:16:18;;;;;;;1.60;1.50;;;2.50;87.50;;;;;;5030197;28;20467;-74
2022/03/04 02:18:46;;;;;;;1.60;1.50;;;2.50;87.20;;;;;;5029445;28;20490;-75
2022/03/04 02:21:15;;;;;;;1.60;1.50;;;2.50;86.90;;;;;;5027680;28;20473;-73
2022/03/04 02:23:43;;;;;;;1.60;1.50;;;2.40;86.90;;;;;;5029509;28;20486;-74
2022/03/04 02:26:10;;;;;;;1.60;1.50;;;2.40;87.50;;;;;;5029721;28;20483;-73
2022/03/04 02:28:37;;;;;;;1.60;1.50;;;2.40;87.90;;;;;;5029005;28;20467;-74
2022/03/04 02:31:04;;;;;;;1.53;1.40;;;2.40;88.20;;;;;;5025558;28;20463;-71
2022/03/04 02:33:31;;;;;;;1.57;1.43;;;2.30;88.50;;;;;;5028967;28;20463;-74
2022/03/04 02:35:58;;;;;;;1.80;1.70;;;2.30;88.70;;;;;;5018629;28;20531;-72
2022/03/04 02:38:25;;;;;;;1.60;1.50;;;2.30;88.70;;;;;;5019328;28;20467;-74
2022/03/04 02:40:53;;;;;;;1.60;1.50;;;2.40;89.10;;;;;;5017777;28;20469;-75
2022/03/04 02:43:20;;;;;;;1.70;1.60;;;2.40;88.90;;;;;;5028139;28;20474;-74
2022/03/04 02:45:47;;;;;;;1.60;1.50;;;2.40;88.90;;;;;;5028728;28;20455;-73
2022/03/04 02:48:13;;;;;;;1.60;1.50;;;2.40;89.30;;;;;;5001284;28;20478;-76
2022/03/04 02:50:40;;;;;;;1.60;1.50;;;2.40;88.60;;;;;;5028237;28;20530;-73
2022/03/04 02:53:07;;;;;;;1.60;1.50;;;2.30;88.90;;;;;;5004457;28;20484;-74
2022/03/04 02:55:34;;;;;;;1.80;1.70;;;2.30;88.80;;;;;;5027604;28;20493;-76
2022/03/04 02:58:02;;;;;;;1.60;1.50;;;2.30;88.10;;;;;;5003332;28;20497;-76
2022/03/04 03:00:29;;;;;;;1.70;1.60;;;2.30;87.60;;;;;;5028348;28;20530;-73
2022/03/04 03:02:56;;;;;;;1.60;1.50;;;2.20;87.50;;;;;;5032155;28;20551;-73
2022/03/04 03:05:23;;;;;;;1.60;1.50;;;2.10;88.40;;;;;;5028033;28;20487;-73
2022/03/04 03:07:50;;;;;;;1.70;1.60;;;2.10;89.20;;;;;;5027858;28;20888;-73
2022/03/04 03:10:17;;;;;;;1.67;1.57;;;2.00;89.30;;;;;;5023387;28;20459;-73
2022/03/04 03:12:44;;;;;;;1.70;1.60;;;2.00;89.40;;;;;;5028577;28;20499;-73
2022/03/04 03:15:13;;;;;;;1.60;1.50;;;1.90;90.30;;;;;;5028235;28;21011;-72
2022/03/04 03:17:39;;;;;;;1.60;1.50;;;1.90;90.20;;;;;;5028864;28;20764;-73
2022/03/04 03:20:08;;;;;;;1.60;1.50;;;1.90;90.40;;;;;;5027265;28;20479;-73
2022/03/04 03:22:34;;;;;;;1.70;1.60;;;1.90;90.20;;;;;;5027987;28;20459;-75
2022/03/04 03:25:02;;;;;;;1.90;1.80;;;1.90;89.70;;;;;;5028983;28;20922;-74
2022/03/04 03:27:28;;;;;;;1.80;1.70;;;1.80;90.10;;;;;;5028173;28;20502;-75
2022/03/04 03:29:55;;;;;;;1.60;1.50;;;1.80;90.80;;;;;;5026785;28;20464;-74
2022/03/04 03:32:23;;;;;;;1.57;1.40;;;1.80;91.10;;;;;;5026112;28;20470;-73
2022/03/04 03:34:50;;;;;;;1.60;1.50;;;1.90;90.70;;;;;;5027795;28;20483;-73
2022/03/04 03:37:17;;;;;;;1.70;1.60;;;1.90;90.70;;;;;;5027315;28;20948;-72
2022/03/04 03:39:44;;;;;;;1.70;1.60;;;1.90;91.10;;;;;;5027811;28;20475;-72
2022/03/04 03:42:11;;;;;;;1.60;1.50;;;1.90;91.10;;;;;;5027182;28;20463;-73
2022/03/04 03:44:37;;;;;;;1.60;1.50;;;1.90;90.80;;;;;;5028697;28;20482;-74
2022/03/04 03:47:05;;;;;;;1.60;1.50;;;2.00;90.80;;;;;;5027362;28;20470;-73
2022/03/04 03:49:33;;;;;;;1.60;1.50;;;2.00;91.10;;;;;;5026852;28;20464;-73
2022/03/04 03:52:00;;;;;;;1.70;1.60;;;2.00;90.80;;;;;;5027538;28;20470;-72
2022/03/04 03:54:27;;;;;;;1.60;1.50;;;2.00;90.70;;;;;;5050596;23;20486;-70
2022/03/04 03:56:54;;;;;;;1.60;1.50;;;2.00;90.60;;;;;;5039184;28;20520;-69
2022/03/04 03:59:20;;;;;;;1.60;1.50;;;2.00;91.20;;;;;;5027302;28;20502;-71
2022/03/04 04:01:47;;;;;;;1.60;1.50;;;2.00;90.90;;;;;;5033547;28;20462;-70
2022/03/04 04:04:14;;;;;;;1.60;1.50;;;2.00;91.10;;;;;;5027083;28;20483;-70
2022/03/04 04:06:43;;;;;;;1.60;1.50;;;2.00;91.20;;;;;;5028732;28;20481;-69
2022/03/04 04:09:11;;;;;;;1.57;1.47;;;2.00;91.10;;;;;;5033861;28;20470;-71
2022/03/04 04:11:40;;;;;;;1.60;1.50;;;2.00;90.90;;;;;;5026008;28;20481;-71
2022/03/04 04:14:08;;;;;;;1.70;1.60;;;2.00;91.10;;;;;;5035937;28;20896;-71
2022/03/04 04:16:35;;;;;;;1.80;1.70;;;2.00;91.10;;;;;;5030804;28;20467;-70
2022/03/04 04:19:02;;;;;;;1.60;1.50;;;2.00;90.70;;;;;;5028611;28;20466;-70
2022/03/04 04:21:29;;;;;;;1.60;1.50;;;2.00;90.50;;;;;;5029394;28;20960;-70
2022/03/04 04:23:57;;;;;;;1.60;1.50;;;2.00;90.70;;;;;;5031472;28;20979;-70
2022/03/04 04:26:25;;;;;;;1.60;1.50;;;1.90;90.40;;;;;;5033426;28;20852;-70
2022/03/04 04:28:52;;;;;;;1.80;1.70;;;1.90;91.30;;;;;;5030531;28;20512;-70
2022/03/04 04:31:20;;;;;;;1.60;1.50;;;1.90;91.00;;;;;;5031157;28;20837;-70
2022/03/04 04:33:46;;;;;;;1.70;1.60;;;1.80;91.10;;;;;;5031012;28;20920;-70
2022/03/04 04:36:14;;;;;;;1.60;1.50;;;1.80;91.10;;;;;;5031826;28;20779;-70
2022/03/04 04:38:40;;;;;;;1.60;1.50;;;1.70;91.60;;;;;;5032946;28;20463;-70
2022/03/04 04:41:09;;;;;;;1.60;1.50;;;1.70;91.70;;;;;;5022903;28;20668;-69
2022/03/04 04:43:36;;;;;;;1.60;1.50;;;1.60;92.90;;;;;;5026817;28;20463;-69
2022/03/04 04:46:04;;;;;;;3.20;3.00;;;1.60;93.60;;;;;;5030687;28;20479;-70
2022/03/04 04:48:31;;;;;;;1.60;1.50;;;1.60;93.10;;;;;;5029193;28;20470;-69
2022/03/04 04:50:59;;;;;;;1.70;1.60;;;1.60;92.90;;;;;;5017410;28;20451;-69
2022/03/04 04:53:25;;;;;;;1.70;1.60;;;1.60;92.90;;;;;;5043673;28;20489;-69
2022/03/04 04:55:52;;;;;;;1.60;1.50;;;1.50;92.90;;;;;;5030122;28;20491;-69
2022/03/04 04:58:20;;;;;;;1.60;1.50;;;1.50;93.30;;;;;;5029090;28;20456;-69
2022/03/04 05:00:53;;;;;;;1.70;1.60;;;1.50;92.70;;;;;;5029939;28;20491;-70
2022/03/04 05:03:20;;;;;;;1.60;1.50;;;1.40;92.30;;;;;;5028759;28;20553;-70
2022/03/04 05:05:47;;;;;;;1.70;1.60;;;1.40;92.10;;;;;;5029794;28;20479;-70
2022/03/04 05:08:13;;;;;;;1.60;1.50;;;1.30;92.20;;;;;;5031647;28;20466;-70
2022/03/04 05:10:40;;;;;;;1.60;1.50;;;1.20;94.00;;;;;;5028864;28;20909;-70
2022/03/04 05:13:07;;;;;;;1.60;1.50;;;1.20;93.80;;;;;;5032259;28;20459;-69
2022/03/04 05:15:35;;;;;;;1.80;1.70;;;1.20;94.10;;;;;;5029772;28;20479;-70
2022/03/04 05:18:02;;;;;;;1.60;1.50;;;1.10;93.70;;;;;;5031267;28;20467;-69
2022/03/04 05:20:28;;;;;;;1.70;1.60;;;1.20;94.90;;;;;;5028537;28;20871;-70
2022/03/04 05:22:55;;;;;;;1.70;1.60;;;1.10;94.50;;;;;;5030434;28;20887;-69
2022/03/04 05:25:22;;;;;;;1.80;1.70;;;1.10;94.90;;;;;;5029709;28;20494;-69
2022/03/04 05:27:50;;;;;;;1.70;1.60;;;1.20;94.50;;;;;;5029987;28;20471;-70
2022/03/04 05:30:17;;;;;;;1.77;1.67;;;1.20;94.90;;;;;;5027453;28;20985;-69
2022/03/04 05:32:46;;;;;;;1.70;1.60;;;1.20;93.60;;;;;;5035872;28;20463;-70
2022/03/04 05:35:13;;;;;;;1.70;1.60;;;1.20;93.40;;;;;;5028556;28;20994;-70
2022/03/04 05:37:40;;;;;;;2.80;2.60;;;1.10;93.10;;;;;;5034525;28;20551;-69
2022/03/04 05:40:08;;;;;;;1.80;1.70;;;1.10;92.40;;;;;;5028627;28;20490;-70
2022/03/04 05:42:35;;;;;;;1.60;1.50;;;1.00;92.80;;;;;;5036220;28;20659;-70
2022/03/04 05:45:02;;;;;;;1.70;1.60;;;0.90;92.90;;;;;;5030607;28;21011;-70
2022/03/04 05:47:29;;;;;;;1.70;1.60;;;0.90;93.30;;;;;;5033141;28;20646;-70
2022/03/04 05:49:57;;;;;;;1.80;1.70;;;0.80;94.00;;;;;;5026931;28;20523;-69
2022/03/04 05:52:23;;;;;;;1.70;1.60;;;0.80;94.40;;;;;;5030324;28;20463;-70
2022/03/04 05:54:50;;;;;;;1.60;1.50;;;0.70;94.40;;;;;;5028074;28;20495;-70
2022/03/04 05:57:17;;;;;;;1.77;1.67;;;0.70;94.50;;;;;;5031162;28;20547;-70
2022/03/04 05:59:44;;;;;;;1.60;1.50;;;0.70;94.40;;;;;;5028706;28;20471;-70
2022/03/04 06:02:11;;;;;;;1.70;1.60;;;0.70;94.70;;;;;;5025547;28;20749;-69
2022/03/04 06:04:39;;;;;;;1.70;1.60;;;0.60;94.90;;;;;;5031328;28;20495;-68
2022/03/04 06:07:07;;;;;;;1.70;1.60;;;0.60;94.60;;;;;;5027258;28;20540;-69
2022/03/04 06:09:34;;;;;;;1.83;1.73;;;0.50;96.20;;;;;;5019744;28;20884;-68
2022/03/04 06:12:02;;;;;;;1.70;1.60;;;0.60;97.10;;;;;;5020649;28;21067;-69
2022/03/04 06:14:29;;;;;;;1.80;1.70;;;0.60;97.70;;;;;;5018551;28;20514;-68
2022/03/04 06:16:55;;;;;;;1.80;1.70;;;0.60;97.60;;;;;;5021494;28;20490;-69
2022/03/04 06:19:23;;;;;;;1.70;1.60;;;0.60;97.90;;;;;;5030136;28;20474;-69
2022/03/04 06:21:50;;;;;;;1.70;1.60;;;0.60;97.60;;;;;;5024826;28;20491;-69
2022/03/04 06:24:19;;;;;;;1.80;1.70;;;0.70;97.50;;;;;;5028280;28;20502;-69
2022/03/04 06:26:47;;;;;;;1.67;1.57;;;0.70;97.50;;;;;;5020503;28;20489;-70
2022/03/04 06:29:14;;;;;;;1.60;1.50;;;0.70;97.00;;;;;;5023282;28;20463;-69
2022/03/04 06:31:40;;;;;;;1.70;1.60;;;0.70;96.60;;;;;;5021628;28;20505;-69
2022/03/04 06:34:07;;;;;;;1.70;1.60;;;0.70;96.20;;;;;;5032022;28;21042;-69
2022/03/04 06:36:34;;;;;;;1.80;1.70;;;0.70;95.90;;;;;;5028111;28;21077;-68
2022/03/04 06:39:01;;;;;;;1.80;1.70;;;0.70;96.40;;;;;;5023626;28;20467;-68
2022/03/04 06:41:29;;;;;;;1.90;1.80;;;0.70;97.30;;;;;;5025350;28;20973;-71
2022/03/04 06:43:55;;;;;;;1.63;1.53;;;0.70;97.00;;;;;;5023328;28;20565;-73
2022/03/04 06:46:23;;;;;;;1.70;1.60;;;0.70;96.90;;;;;;5024616;28;20469;-72
2022/03/04 06:48:50;;;;;;;1.60;1.50;;;0.80;97.10;;;;;;5020050;28;20537;-71
2022/03/04 06:51:16;;;;;;;1.80;1.70;;;0.80;97.70;;;;;;5024766;28;20552;-75
2022/03/04 06:53:43;;;;;;;1.70;1.60;;;0.90;97.60;;;;;;5024931;28;20478;-71
2022/03/04 06:56:10;;;;;;;1.60;1.50;;;1.00;98.20;;;;;;5027934;28;20800;-70
2022/03/04 06:58:40;;;;;;;1.70;1.60;;;1.10;98.20;;;;;;5029403;28;20597;-70
2022/03/04 07:01:06;;;;;;;1.80;1.70;;;1.20;98.20;;;;;;5025285;28;20491;-74
2022/03/04 07:03:33;;;;;;;1.60;1.50;;;1.40;98.20;;;;;;5025768;28;20572;-72
2022/03/04 07:06:00;;;;;;;1.70;1.60;;;1.50;97.90;;;;;;5024227;28;20862;-71
2022/03/04 07:08:27;;;;;;;1.70;1.60;;;1.60;97.00;;;;;;5027854;28;20870;-71
2022/03/04 07:10:54;;;;;;;1.70;1.60;;;1.80;97.20;;;;;;5024223;28;20474;-71
2022/03/04 07:13:21;;;;;;;1.63;1.53;;;1.90;96.30;;;;;;5028225;28;20971;-72
2022/03/04 07:15:51;;;;;;;1.60;1.50;;;2.10;95.90;;;;;;5025769;28;20846;-70
2022/03/04 07:18:18;;;;;;;1.70;1.60;;;2.30;96.20;;;;;;5016791;28;20486;-69
2022/03/04 07:20:47;;;;;;;1.60;1.50;;;2.50;95.50;;;;;;5023910;28;20538;-70
2022/03/04 07:23:14;;;;;;;1.60;1.50;;;2.70;94.30;;;;;;5026381;28;20829;-71
2022/03/04 07:25:41;;;;;;;1.60;1.50;;;2.80;93.40;;;;;;5024933;28;20773;-70
2022/03/04 07:28:08;;;;;;;1.53;1.40;;;2.90;93.20;;;;;;5032034;28;20478;-70
2022/03/04 07:30:36;;;;;;;1.60;1.50;;;3.00;92.60;;;;;;5024235;28;20502;-71
2022/03/04 07:33:04;;;;;;;1.60;1.50;;;3.10;92.10;;;;;;5026631;28;20460;-70
2022/03/04 07:35:31;;;;;;;1.60;1.43;;;3.30;91.50;;;;;;5025442;28;20564;-73
2022/03/04 07:37:58;;;;;;;1.53;1.40;;;3.50;90.50;;;;;;5026687;28;20517;-71
2022/03/04 07:40:25;;;;;;;1.67;1.57;;;3.60;89.80;;;;;;5023099;28;20497;-75
2022/03/04 07:42:52;;;;;;;1.57;1.40;;;3.80;88.80;;;;;;5028984;28;20474;-73
2022/03/04 07:45:19;;;;;;;1.60;1.40;;;3.90;87.70;;;;;;5025436;28;20530;-70
2022/03/04 07:47:46;;;;;;;1.60;1.50;;;4.00;87.00;;;;;;5030743;28;20958;-75
2022/03/04 07:50:16;;;;;;;1.53;1.40;;;4.10;86.40;;;;;;5021984;28;20971;-76
2022/03/04 07:52:44;;;;;;;1.53;1.40;;;4.30;86.20;;;;;;5025530;28;20825;-70
2022/03/04 07:55:12;;;;;;;1.57;1.40;;;4.30;85.30;;;;;;5018725;28;20603;-71
2022/03/04 07:57:39;;;;;;;1.60;1.40;;;4.40;85.30;;;;;;5022111;28;20989;-73
2022/03/04 08:00:10;;;;;;;1.60;1.33;;;4.50;85.50;;;;;;5021368;28;20474;-71
2022/03/04 08:02:37;;;;;;;1.73;1.63;;;4.70;85.00;;;;;;5018036;28;20470;-71
2022/03/04 08:05:04;;;;;;;1.60;1.40;;;4.90;84.90;;;;;;5023156;28;20486;-70
2022/03/04 08:07:33;;;;;;;1.63;1.53;;;5.00;84.40;;;;;;5024077;28;20462;-71
2022/03/04 08:10:00;;;;;;;1.60;1.30;;;5.10;84.10;;;;;;5026461;28;20496;-70
2022/03/04 08:12:27;;;;;;;1.60;1.40;;;5.10;84.30;;;;;;5025703;28;21227;-71
2022/03/04 08:14:54;;;;;;;3.57;3.23;;;5.20;84.20;;;;;;5028329;28;21056;-73
2022/03/04 08:17:20;;;;;;;1.60;1.40;;;5.40;84.10;;;;;;5030231;28;20501;-72
2022/03/04 08:19:47;;;;;;;1.53;1.37;;;5.50;83.60;;;;;;5030116;28;21062;-71
2022/03/04 08:22:14;;;;;;;1.50;1.30;;;5.50;83.20;;;;;;5028887;28;20693;-73
2022/03/04 08:24:42;;;;;;;1.53;1.30;;;5.60;83.40;;;;;;5032880;28;20491;-72
2022/03/04 08:27:09;;;;;;;5.70;5.20;;;5.80;83.50;;;;;;5034460;28;20474;-70
2022/03/04 08:29:35;;;;;;;1.53;1.30;;;5.90;82.30;;;;;;5025522;28;20467;-70
2022/03/04 08:32:02;;;;;;;1.50;1.30;;;5.90;82.20;;;;;;5026608;28;20462;-71
2022/03/04 08:34:29;;;;;;;1.50;1.27;;;5.90;81.90;;;;;;5021508;28;20491;-70
2022/03/04 08:36:56;;;;;;;4.57;4.17;;;6.00;81.90;;;;;;5024898;28;20467;-70
2022/03/04 08:39:23;;;;;;;1.53;1.30;;;6.10;81.40;;;;;;5027432;28;20854;-71
2022/03/04 08:41:51;;;;;;;1.50;1.30;;;6.20;81.70;;;;;;5028717;28;20494;-69
2022/03/04 08:44:18;;;;;;;1.57;1.33;;;6.30;81.00;;;;;;5027010;28;20486;-70
2022/03/04 08:46:45;;;;;;;6.40;3.33;;;6.40;80.90;;;;;;5030243;28;20467;-71
2022/03/04 08:49:12;;;;;;;1.60;1.40;;;6.50;80.30;;;;;;5026059;28;20462;-71
2022/03/04 08:51:38;;;;;;;1.53;1.33;;;6.60;79.80;;;;;;5028276;28;20477;-70
2022/03/04 08:54:06;;;;;;;1.53;1.40;;;6.70;79.30;;;;;;5025871;28;20490;-71
2022/03/04 08:56:33;;;;;;;1.50;1.40;;;6.80;78.80;;;;;;5026081;28;20467;-70
2022/03/04 08:59:02;;;;;;;1.53;1.40;;;6.80;78.70;;;;;;5027973;28;20498;-71
2022/03/04 09:01:29;;;;;;;1.70;1.60;;;6.90;78.80;;;;;;5026960;28;20494;-70
2022/03/04 09:03:56;;;;;;;1.60;1.30;;;7.00;78.50;;;;;;5027065;28;20467;-71
2022/03/04 09:06:22;;;;;;;1.60;1.40;;;7.10;78.30;;;;;;5027060;28;20999;-70
2022/03/04 09:08:49;;;;;;;1.50;1.30;;;7.20;78.10;;;;;;5026942;28;20498;-70
2022/03/04 09:11:16;;;;;;;1.50;1.30;;;7.30;77.70;;;;;;5022272;28;20492;-70
2022/03/04 09:13:43;;;;;;;1.50;1.30;;;7.40;77.40;;;;;;5039156;28;20496;-71
2022/03/04 09:16:11;;;;;;;1.50;1.30;;;7.50;76.90;;;;;;5029311;28;20471;-70
2022/03/04 09:18:37;;;;;;;1.50;1.30;;;7.60;76.70;;;;;;5029410;28;20468;-70
2022/03/04 09:21:04;;;;;;;2.43;2.23;;;7.70;76.80;;;;;;5026110;28;20494;-70
2022/03/04 09:23:31;;;;;;;1.50;1.20;;;7.90;76.40;;;;;;5026975;28;20467;-70
2022/03/04 09:25:58;;;;;;;1.50;1.20;;;8.00;76.00;;;;;;5025275;28;20489;-70
2022/03/04 09:28:24;;;;;;;1.60;1.50;;;8.10;75.50;;;;;;5030488;28;20471;-70
2022/03/04 09:30:51;;;;;;;1.50;1.40;;;8.20;75.50;;;;;;5023941;28;20979;-70
2022/03/04 09:33:19;;;;;;;1.50;1.30;;;8.30;75.20;;;;;;5030374;28;20474;-70
2022/03/04 09:35:46;;;;;;;1.50;1.13;;;8.50;74.80;;;;;;5026472;28;20566;-71
2022/03/04 09:38:13;;;;;;;1.50;1.10;;;8.60;74.80;;;;;;5034130;28;20566;-71
2022/03/04 09:40:40;;;;;;;1.60;1.37;;;8.70;73.60;;;;;;5025512;28;20498;-71
2022/03/04 09:43:07;;;;;;;1.50;1.20;;;8.70;73.50;;;;;;5027757;28;20470;-67
2022/03/04 09:45:35;;;;;;;1.50;1.10;;;9.00;73.80;;;;;;5025549;28;20714;-68
2022/03/04 09:48:03;;;;;;;3.20;3.00;;;9.10;72.50;;;;;;5025102;28;20467;-68
2022/03/04 09:50:34;;;;;;;2.13;1.93;;;9.30;72.80;;;;;;5022676;28;20474;-71
2022/03/04 09:53:04;;;;;;;3.87;3.67;;;9.50;72.30;;;;;;5024627;28;20914;-71
2022/03/04 09:55:31;;;;;;;1.50;1.20;;;9.70;72.20;;;;;;5025779;28;20870;-69
2022/03/04 09:57:58;;;;;;;2.63;2.43;;;9.90;72.60;;;;;;5027780;28;20558;-70
2022/03/04 10:00:25;;;;;;;2.23;2.00;;;10.20;71.40;;;;;;5043754;23;20483;-73
2022/03/04 10:02:52;;;;;;;1.50;1.10;;;10.20;70.30;;;;;;5025126;28;20495;-76
2022/03/04 10:05:18;;;;;;;2.70;2.50;;;10.30;70.70;;;;;;5027273;28;20467;-73
2022/03/04 10:07:49;;;;;;;4.80;3.13;;;10.40;70.20;;;;;;5026462;28;20479;-75
2022/03/04 10:10:17;;;;;;;1.60;1.40;;;10.60;71.10;;;;;;5026344;28;20495;-74
2022/03/04 10:12:49;;;;;;;1.50;1.30;;;10.90;70.40;;;;;;5026202;28;20518;-74
2022/03/04 10:15:17;;;;;;;3.97;2.47;;;11.20;69.80;;;;;;5026440;28;20473;-72
2022/03/04 10:17:56;;;;;;;1.50;1.10;;;11.30;69.50;;;;;;5015461;28;20911;-74
2022/03/04 10:20:33;;;;;;;1.50;1.10;;;11.50;68.50;;;;;;5025451;28;20523;-77
2022/03/04 10:23:16;;;;;;;2.53;2.33;;;11.50;67.70;;;;;;5023251;28;20534;-74
2022/03/04 10:25:45;;;;;;;1.50;1.10;;;11.40;67.20;;;;;;5027314;28;20459;-71
2022/03/04 10:28:12;;;;;;;1.50;1.20;;;11.30;67.50;;;;;;5014796;28;20483;-71
2022/03/04 10:30:44;;;;;;;1.50;1.17;;;11.30;67.50;;;;;;5024808;28;20881;-70
2022/03/04 10:33:13;;;;;;;1.50;1.10;;;11.30;67.50;;;;;;5025847;28;20557;-70
2022/03/04 10:35:41;;;;;;;1.60;1.30;;;11.40;68.00;;;;;;5024379;28;20462;-71
2022/03/04 10:38:21;;;;;;;2.97;2.77;;;11.40;67.60;;;;;;5014854;28;20483;-71
2022/03/04 10:40:48;;;;;;;1.50;1.00;;;11.40;67.30;;;;;;5024319;28;20489;-71
2022/03/04 10:43:23;;;;;;;1.50;1.10;;;11.30;67.10;;;;;;5024188;28;20487;-71
2022/03/04 10:46:00;;;;;;;1.50;1.00;;;11.40;66.90;;;;;;5024548;28;20467;-72
2022/03/04 10:48:27;;;;;;;1.50;1.10;;;11.60;66.90;;;;;;5021159;28;20958;-71
2022/03/04 10:50:56;;;;;;;1.50;1.10;;;11.70;66.90;;;;;;5024307;28;20490;-71
2022/03/04 10:53:26;;;;;;;1.50;1.10;;;11.80;65.90;;;;;;5025399;28;20467;-71
2022/03/04 10:55:54;;;;;;;1.50;1.00;;;11.90;66.40;;;;;;5025565;28;20463;-71
2022/03/04 10:58:23;;;;;;;1.50;1.20;;;11.90;65.50;;;;;;5021877;28;20460;-71
2022/03/04 11:00:51;;;;;;;1.50;1.00;;;12.00;65.60;;;;;;5019947;28;21001;-70
2022/03/04 11:03:20;;;;;;;1.60;1.43;;;12.00;64.70;;;;;;5025088;28;21010;-72
2022/03/04 11:05:47;;;;;;;1.43;1.00;;;11.90;65.40;;;;;;5025220;28;20866;-72
2022/03/04 11:08:14;;;;;;;1.50;1.10;;;11.90;65.50;;;;;;5023843;28;20467;-71
2022/03/04 11:10:43;;;;;;;1.50;1.00;;;11.80;65.70;;;;;;5021222;28;20487;-71
2022/03/04 11:13:11;;;;;;;1.50;1.00;;;11.80;64.90;;;;;;5024085;28;21036;-72
2022/03/04 11:15:39;;;;;;;1.43;1.00;;;11.90;65.50;;;;;;5024001;28;20463;-71
2022/03/04 11:18:08;;;;;;;1.50;1.10;;;12.10;65.60;;;;;;5023586;28;20960;-71
2022/03/04 11:20:36;;;;;;;1.50;1.10;;;12.30;65.00;;;;;;5017295;28;20483;-71
2022/03/04 11:23:04;;;;;;;4.33;3.53;;;12.40;64.70;;;;;;5022920;28;20487;-71
2022/03/04 11:25:39;;;;;;;1.47;1.00;;;12.40;64.50;;;;;;5023390;28;20951;-71
2022/03/04 11:28:15;;;;;;;1.50;1.00;;;12.40;65.20;;;;;;5021323;28;20739;-72
2022/03/04 11:30:45;;;;;;;1.43;1.00;;;12.50;64.10;;;;;;5023170;28;20478;-71
2022/03/04 11:33:21;;;;;;;1.50;1.20;;;12.30;63.30;;;;;;5021024;28;20877;-71
2022/03/04 11:36:13;;;;;;;3.90;1.83;;;12.30;64.30;;;;;;5021983;28;20467;-71
2022/03/04 11:39:13;;;;;;;1.93;1.83;;;12.30;63.50;;;;;;5020141;28;20475;-72
2022/03/04 11:42:14;;;;;;;1.50;1.07;;;12.30;64.20;;;;;;5010487;28;20490;-73
2022/03/04 11:44:59;;;;;;;1.50;1.00;;;12.30;63.40;;;;;;5022979;28;20471;-74
2022/03/04 11:47:30;;;;;;;1.50;1.10;;;12.60;63.50;;;;;;5022557;28;20463;-71
2022/03/04 11:49:57;;;;;;;1.50;1.00;;;12.70;63.80;;;;;;5022504;28;20493;-73
2022/03/04 11:52:26;;;;;;;1.50;1.40;;;12.70;63.20;;;;;;5024427;28;20986;-75
2022/03/04 11:55:20;;;;;;;1.50;1.10;;;12.80;62.80;;;;;;5024432;28;20501;-75
2022/03/04 11:57:49;;;;;;;1.93;1.83;;;13.00;63.50;;;;;;5022181;28;20463;-72
2022/03/04 12:00:26;;;;;;;1.50;1.07;;;13.00;61.50;;;;;;5020363;28;20887;-72
2022/03/04 12:02:54;;;;;;;1.50;1.00;;;13.00;61.70;;;;;;5022850;28;20494;-75
2022/03/04 12:05:32;;;;;;;1.87;1.60;;;13.10;61.90;;;;;;5023342;28;20464;-72
2022/03/04 12:08:11;;;;;;;1.50;1.30;;;13.20;61.90;;;;;;5021689;28;20455;-72
2022/03/04 12:10:44;;;;;;;1.70;1.50;;;13.10;60.80;;;;;;5022303;28;21114;-76
2022/03/04 12:13:14;;;;;;;1.50;1.10;;;13.30;61.20;;;;;;5022220;28;20470;-73
2022/03/04 12:15:44;;;;;;;1.50;1.20;;;13.00;59.80;;;;;;5023571;28;20951;-77
2022/03/04 12:18:17;;;;;;;1.43;0.90;;;13.00;61.00;;;;;;5023421;28;20486;-71
2022/03/04 12:21:10;;;;;;;1.50;1.00;;;13.00;60.90;;;;;;5015221;28;20489;-71
2022/03/04 12:23:45;;;;;;;1.50;1.00;;;13.10;60.60;;;;;;5023133;28;20896;-71
2022/03/04 12:26:20;;;;;;;1.50;1.30;;;13.20;60.90;;;;;;5013607;28;20494;-75
2022/03/04 12:28:50;;;;;;;1.50;1.03;;;13.10;59.20;;;;;;5023865;28;20486;-75
2022/03/04 12:31:25;;;;;;;1.47;1.00;;;13.00;59.40;;;;;;5017603;28;20850;-71
2022/03/04 12:33:55;;;;;;;1.50;1.10;;;13.00;58.70;;;;;;5019880;28;20496;-75
2022/03/04 12:36:27;;;;;;;1.50;1.00;;;13.10;59.40;;;;;;5023151;28;20546;-76
2022/03/04 12:38:56;;;;;;;1.50;1.00;;;13.20;59.70;;;;;;5023693;28;20490;-77
2022/03/04 12:41:26;;;;;;;1.50;1.00;;;13.40;60.60;;;;;;5025977;28;20471;-75
2022/03/04 12:43:55;;;;;;;1.47;1.00;;;13.50;58.30;;;;;;5028393;28;21156;-75
2022/03/04 12:46:25;;;;;;;1.47;1.00;;;13.60;58.30;;;;;;5026888;28;21216;-72
2022/03/04 12:48:53;;;;;;;1.50;1.00;;;13.60;57.70;;;;;;5025889;28;20518;-72
2022/03/04 12:51:25;;;;;;;1.60;1.30;;;13.50;57.30;;;;;;5014595;28;21391;-72
2022/03/04 12:53:53;;;;;;;1.50;1.27;;;13.70;58.50;;;;;;5018132;28;20661;-73
2022/03/04 12:56:22;;;;;;;1.60;1.50;;;13.80;57.90;;;;;;5011078;28;20486;-73
2022/03/04 12:58:50;;;;;;;1.50;0.97;;;13.80;57.00;;;;;;5011857;28;20518;-74
2022/03/04 13:01:19;;;;;;;1.57;1.30;;;13.80;56.60;;;;;;5022537;28;20480;-78